Time;durP1;ratioP1;P1;durP2;ratioP2;P2;SDS_P1;SDS_P2;PMS_P1;PMS_P2;Temp;Humidity;BMP_temperature;BMP_pressure;BME280_temperature;BME280_humidity;BME280_pressure;Samples;Min_cycle;Max_cycle;Signal;HPM_P1;HPM_P2
2022/04/24 00:01:30;;;;;;;2.57;1.57;;;7.80;1.00;;;;;;5032772;28;20203;-77
2022/04/24 00:03:56;;;;;;;3.40;1.60;;;7.90;1.00;;;;;;5032744;28;20254;-76
2022/04/24 00:06:22;;;;;;;3.47;2.27;;;7.90;1.00;;;;;;5014864;28;20266;-77
2022/04/24 00:08:48;;;;;;;4.03;1.90;;;7.80;1.00;;;;;;5032314;28;20501;-77
2022/04/24 00:11:13;;;;;;;4.10;2.47;;;7.90;1.00;;;;;;5032632;28;20174;-76
2022/04/24 00:13:41;;;;;;;5.23;2.23;;;7.80;1.00;;;;;;5014565;28;20737;-76
2022/04/24 00:16:08;;;;;;;4.70;1.57;;;7.80;1.00;;;;;;5044836;28;20265;-76
2022/04/24 00:18:34;;;;;;;4.40;1.90;;;7.80;1.00;;;;;;5052485;28;20500;-76
2022/04/24 00:21:01;;;;;;;3.60;1.97;;;7.70;1.00;;;;;;5034358;28;20416;-76
2022/04/24 00:23:26;;;;;;;2.37;1.60;;;7.70;1.00;;;;;;5033891;28;21090;-75
2022/04/24 00:25:52;;;;;;;4.50;1.90;;;7.60;1.00;;;;;;5052348;28;20421;-76
2022/04/24 00:28:17;;;;;;;3.23;1.60;;;7.60;1.00;;;;;;5034178;28;20175;-76
2022/04/24 00:30:43;;;;;;;5.13;2.10;;;7.60;1.00;;;;;;5052304;28;20514;-76
2022/04/24 00:33:09;;;;;;;4.20;2.40;;;7.60;1.00;;;;;;5052083;28;20263;-76
2022/04/24 00:35:34;;;;;;;5.33;1.63;;;7.60;1.00;;;;;;5052220;28;20181;-76
2022/04/24 00:38:06;;;;;;;4.37;1.83;;;7.50;1.00;;;;;;5052172;28;20412;-77
2022/04/24 00:40:31;;;;;;;8.73;3.23;;;7.50;1.00;;;;;;5051824;28;20166;-76
2022/04/24 00:42:57;;;;;;;3.30;1.80;;;7.40;1.00;;;;;;5052145;28;20413;-77
2022/04/24 00:45:23;;;;;;;5.83;2.20;;;7.50;1.00;;;;;;5052008;28;20174;-77
2022/04/24 00:47:48;;;;;;;2.80;1.57;;;7.40;1.00;;;;;;5051952;28;20209;-77
2022/04/24 00:50:14;;;;;;;3.50;1.60;;;7.40;1.00;;;;;;5051762;28;20681;-76
2022/04/24 00:52:40;;;;;;;3.40;2.00;;;7.30;1.00;;;;;;5052127;28;20634;-76
2022/04/24 00:55:07;;;;;;;3.90;3.10;;;7.20;1.00;;;;;;5051664;28;20167;-76
2022/04/24 00:57:32;;;;;;;3.10;1.97;;;7.30;4.40;;;;;;5051858;28;20416;-76
2022/04/24 00:59:58;;;;;;;3.33;2.23;;;7.30;1.00;;;;;;5052004;28;20467;-76
2022/04/24 01:02:24;;;;;;;3.07;1.70;;;7.20;1.00;;;;;;5051998;28;20174;-76
2022/04/24 01:04:50;;;;;;;5.10;1.93;;;7.10;1.00;;;;;;5051913;28;20185;-76
2022/04/24 01:07:15;;;;;;;4.80;2.23;;;7.10;1.00;;;;;;5051948;28;20424;-76
2022/04/24 01:09:41;;;;;;;4.50;2.30;;;7.20;1.00;;;;;;5054070;28;20174;-76
2022/04/24 01:12:08;;;;;;;4.13;1.87;;;7.30;1.00;;;;;;5055482;28;20601;-76
2022/04/24 01:14:34;;;;;;;7.17;2.50;;;7.30;1.00;;;;;;5055515;28;20182;-76
2022/04/24 01:17:05;;;;;;;2.97;1.70;;;7.40;1.00;;;;;;5055672;28;20458;-77
2022/04/24 01:19:33;;;;;;;3.10;1.43;;;7.30;1.00;;;;;;5055557;28;20470;-75
2022/04/24 01:21:59;;;;;;;2.50;1.90;;;7.40;1.00;;;;;;5055380;28;20448;-76
2022/04/24 01:24:27;;;;;;;4.70;1.80;;;7.50;1.00;;;;;;5054834;28;20568;-75
2022/04/24 01:26:53;;;;;;;5.60;2.03;;;7.50;1.00;;;;;;5055377;28;20160;-76
2022/04/24 01:29:20;;;;;;;4.27;2.20;;;7.50;1.00;;;;;;5055054;28;20425;-76
2022/04/24 01:31:50;;;;;;;4.07;1.77;;;7.50;1.00;;;;;;5055238;28;20471;-77
2022/04/24 01:34:16;;;;;;;3.80;2.50;;;7.40;1.00;;;;;;5055239;28;20412;-76
2022/04/24 01:36:42;;;;;;;2.40;1.27;;;7.40;1.00;;;;;;5055148;28;20507;-77
2022/04/24 01:39:08;;;;;;;7.17;2.03;;;7.40;1.00;;;;;;5053958;28;20915;-76
2022/04/24 01:41:34;;;;;;;3.13;2.07;;;7.40;1.00;;;;;;5055120;28;20413;-76
2022/04/24 01:44:00;;;;;;;10.73;2.70;;;7.40;1.00;;;;;;5037181;28;20616;-76
2022/04/24 01:46:26;;;;;;;2.60;1.30;;;7.40;1.00;;;;;;5055001;28;20454;-77
2022/04/24 01:48:52;;;;;;;3.20;1.33;;;7.40;1.00;;;;;;5054903;28;20412;-76
2022/04/24 01:51:17;;;;;;;4.53;2.40;;;7.40;1.00;;;;;;5054853;28;20175;-76
2022/04/24 01:53:44;;;;;;;2.80;1.77;;;7.30;1.00;;;;;;5054568;28;20222;-76
2022/04/24 01:56:11;;;;;;;5.40;1.03;;;7.20;1.00;;;;;;5054803;28;20236;-76
2022/04/24 01:58:37;;;;;;;2.40;1.23;;;7.20;1.00;;;;;;5054754;28;20469;-75
2022/04/24 02:01:04;;;;;;;5.23;1.67;;;7.30;1.00;;;;;;5054800;28;20413;-77
2022/04/24 02:03:30;;;;;;;2.87;1.00;;;7.20;1.00;;;;;;5054495;28;20813;-76
2022/04/24 02:05:56;;;;;;;1.80;0.73;;;7.20;1.00;;;;;;5054577;28;20421;-76
2022/04/24 02:08:22;;;;;;;6.83;1.80;;;7.20;1.00;;;;;;5054291;28;20421;-76
2022/04/24 02:10:47;;;;;;;4.00;1.50;;;7.20;1.00;;;;;;5054539;28;21006;-76
2022/04/24 02:13:13;;;;;;;4.43;1.90;;;7.10;1.00;;;;;;5054473;28;20206;-76
2022/04/24 02:15:39;;;;;;;2.67;1.17;;;7.10;1.00;;;;;;5054453;28;20265;-76
2022/04/24 02:18:05;;;;;;;2.97;1.37;;;7.10;1.00;;;;;;5054419;28;20416;-76
2022/04/24 02:20:31;;;;;;;2.80;1.43;;;7.10;1.00;;;;;;5053700;28;20950;-76
2022/04/24 02:23:00;;;;;;;4.70;1.37;;;7.10;1.00;;;;;;5054055;28;20524;-77
2022/04/24 02:25:26;;;;;;;3.47;1.47;;;7.10;1.00;;;;;;5054111;28;20347;-77
2022/04/24 02:27:53;;;;;;;3.80;1.63;;;7.10;1.00;;;;;;5054281;28;20412;-76
2022/04/24 02:30:20;;;;;;;4.03;0.60;;;7.10;1.00;;;;;;5054181;28;20416;-77
2022/04/24 02:32:46;;;;;;;2.63;0.70;;;7.10;1.00;;;;;;5053359;28;20482;-76
2022/04/24 02:35:12;;;;;;;5.67;1.00;;;7.20;1.00;;;;;;5054037;28;20500;-76
2022/04/24 02:37:38;;;;;;;2.63;1.57;;;7.20;1.00;;;;;;5054034;28;20173;-77
2022/04/24 02:40:04;;;;;;;2.90;0.77;;;7.10;1.00;;;;;;5053686;28;20417;-76
2022/04/24 02:42:29;;;;;;;3.00;1.63;;;7.20;1.00;;;;;;5053933;28;20185;-77
2022/04/24 02:44:55;;;;;;;5.00;1.70;;;7.20;1.00;;;;;;5053878;28;20404;-76
2022/04/24 02:47:20;;;;;;;2.87;1.60;;;7.20;1.00;;;;;;5053828;28;20189;-77
2022/04/24 02:49:46;;;;;;;2.50;1.23;;;7.10;1.00;;;;;;5035866;28;20272;-77
2022/04/24 02:52:11;;;;;;;5.30;1.27;;;7.20;1.00;;;;;;5053654;28;20211;-77
2022/04/24 02:54:37;;;;;;;1.73;0.70;;;7.10;1.00;;;;;;5053224;28;20246;-77
2022/04/24 02:57:02;;;;;;;4.43;2.00;;;7.10;6.00;;;;;;5053716;28;20231;-77
2022/04/24 02:59:29;;;;;;;3.43;0.70;;;7.20;12.10;;;;;;5053373;28;20552;-77
2022/04/24 03:01:55;;;;;;;2.30;1.30;;;7.10;1.00;;;;;;5053443;28;20175;-77
2022/04/24 03:04:20;;;;;;;3.50;1.30;;;7.10;1.00;;;;;;5053418;28;20420;-75
2022/04/24 03:06:46;;;;;;;2.50;1.73;;;7.20;1.00;;;;;;5035479;28;20214;-76
2022/04/24 03:09:11;;;;;;;3.43;1.33;;;7.20;1.00;;;;;;5053172;28;20177;-76
2022/04/24 03:11:37;;;;;;;6.10;1.30;;;7.10;19.00;;;;;;5053381;28;20329;-77
2022/04/24 03:14:03;;;;;;;2.80;1.07;;;7.10;9.60;;;;;;5053248;28;20216;-76
2022/04/24 03:16:31;;;;;;;4.83;1.60;;;7.10;11.70;;;;;;5053264;28;20169;-76
2022/04/24 03:18:57;;;;;;;8.03;2.10;;;7.10;1.00;;;;;;5053040;28;20623;-77
2022/04/24 03:21:22;;;;;;;4.70;2.00;;;7.10;2.80;;;;;;5053161;28;20451;-77
2022/04/24 03:23:48;;;;;;;3.10;1.50;;;7.00;33.50;;;;;;5052611;28;20305;-77
2022/04/24 03:26:13;;;;;;;3.30;1.80;;;7.00;46.80;;;;;;5053042;28;20206;-76
2022/04/24 03:28:40;;;;;;;3.73;1.47;;;6.90;87.20;;;;;;5053210;28;20172;-75
2022/04/24 03:31:06;;;;;;;4.00;2.20;;;6.90;70.10;;;;;;5053022;28;20182;-76
2022/04/24 03:33:31;;;;;;;6.27;2.50;;;6.80;55.10;;;;;;5051994;28;20464;-76
2022/04/24 03:35:57;;;;;;;4.23;2.10;;;6.80;67.10;;;;;;5035050;28;20228;-76
2022/04/24 03:38:22;;;;;;;3.43;1.07;;;6.70;99.90;;;;;;5052577;28;20177;-76
2022/04/24 03:40:48;;;;;;;3.80;1.57;;;6.60;99.90;;;;;;5052853;28;20885;-76
2022/04/24 03:43:13;;;;;;;4.80;1.70;;;6.70;99.90;;;;;;5052817;28;20264;-76
2022/04/24 03:45:40;;;;;;;3.33;2.07;;;6.70;88.80;;;;;;5052555;28;20170;-77
2022/04/24 03:48:05;;;;;;;4.93;2.13;;;6.70;99.90;;;;;;5052459;28;20185;-76
2022/04/24 03:50:31;;;;;;;5.37;3.70;;;6.60;99.90;;;;;;5052904;28;20904;-77
2022/04/24 03:52:56;;;;;;;5.50;2.10;;;6.40;99.90;;;;;;5052643;28;20374;-77
2022/04/24 03:55:22;;;;;;;2.03;1.10;;;6.40;99.90;;;;;;5052892;28;20167;-77
2022/04/24 03:57:47;;;;;;;6.03;2.93;;;6.30;99.90;;;;;;5052879;28;20172;-77
2022/04/24 04:00:13;;;;;;;5.13;2.13;;;6.20;99.90;;;;;;5052976;28;20169;-76
2022/04/24 04:02:46;;;;;;;7.53;2.70;;;6.10;99.90;;;;;;5052762;28;20172;-77
2022/04/24 04:05:13;;;;;;;4.70;1.47;;;6.00;99.90;;;;;;5052777;28;20781;-77
2022/04/24 04:07:38;;;;;;;4.40;2.40;;;6.10;99.90;;;;;;5052416;28;20511;-77
2022/04/24 04:10:05;;;;;;;4.53;2.50;;;6.00;99.90;;;;;;5052828;28;20503;-77
2022/04/24 04:12:30;;;;;;;3.13;2.10;;;5.90;99.90;;;;;;5052602;28;20213;-76
2022/04/24 04:14:56;;;;;;;2.70;1.83;;;5.90;99.90;;;;;;5052744;28;20503;-77
2022/04/24 04:17:21;;;;;;;2.77;2.40;;;5.90;99.90;;;;;;5052781;28;20177;-76
2022/04/24 04:19:46;;;;;;;3.77;2.50;;;5.80;99.90;;;;;;5052700;28;20170;-77
2022/04/24 04:22:12;;;;;;;7.80;2.23;;;5.80;99.90;;;;;;5052623;28;20300;-77
2022/04/24 04:24:37;;;;;;;4.07;2.50;;;5.80;99.90;;;;;;5052074;28;20218;-77
2022/04/24 04:27:03;;;;;;;3.50;2.00;;;5.80;99.90;;;;;;5052589;28;20672;-76
2022/04/24 04:29:29;;;;;;;6.43;2.27;;;5.80;99.90;;;;;;5052506;28;20200;-77
2022/04/24 04:31:55;;;;;;;5.27;2.43;;;5.80;99.90;;;;;;5052492;28;20181;-77
2022/04/24 04:34:20;;;;;;;7.13;2.53;;;5.80;99.90;;;;;;5052518;28;20173;-77
2022/04/24 04:36:46;;;;;;;5.37;2.80;;;5.70;99.90;;;;;;5052356;28;20427;-77
2022/04/24 04:39:11;;;;;;;4.13;2.07;;;5.80;99.90;;;;;;5052076;28;20180;-77
2022/04/24 04:41:37;;;;;;;5.00;3.00;;;5.70;99.90;;;;;;5060272;28;20646;-77
2022/04/24 04:44:02;;;;;;;4.57;2.60;;;5.80;99.90;;;;;;5058145;28;20213;-77
2022/04/24 04:46:28;;;;;;;3.97;1.70;;;5.80;99.90;;;;;;5056396;28;20180;-78
2022/04/24 04:48:54;;;;;;;4.30;2.30;;;5.80;99.90;;;;;;5056391;28;20223;-77
2022/04/24 04:51:19;;;;;;;8.23;2.80;;;6.00;99.90;;;;;;5056279;28;20671;-77
2022/04/24 04:53:45;;;;;;;3.20;2.43;;;5.90;99.90;;;;;;5055935;28;20264;-77
2022/04/24 04:56:10;;;;;;;5.00;2.67;;;6.00;99.90;;;;;;5056277;28;20170;-77
2022/04/24 04:58:36;;;;;;;3.97;2.60;;;6.00;99.90;;;;;;5056202;28;20508;-77
2022/04/24 05:01:02;;;;;;;6.67;3.27;;;6.10;99.90;;;;;;5055948;28;20166;-77
2022/04/24 05:03:27;;;;;;;6.33;3.03;;;6.10;99.90;;;;;;5055959;28;20217;-77
2022/04/24 05:05:53;;;;;;;5.20;2.83;;;6.20;99.90;;;;;;5056007;28;20523;-77
2022/04/24 05:08:18;;;;;;;4.10;1.97;;;6.30;99.90;;;;;;5055571;28;20525;-78
2022/04/24 05:10:44;;;;;;;6.03;2.30;;;6.30;99.90;;;;;;5055882;28;20255;-77
2022/04/24 05:13:10;;;;;;;3.93;3.20;;;6.40;99.90;;;;;;5055827;28;20170;-78
2022/04/24 05:15:35;;;;;;;3.13;1.70;;;6.50;99.90;;;;;;5055848;28;20514;-77
2022/04/24 05:18:01;;;;;;;8.57;3.80;;;6.80;99.90;;;;;;5055845;28;20253;-78
2022/04/24 05:20:26;;;;;;;4.07;2.87;;;7.10;99.90;;;;;;5055735;28;20515;-77
2022/04/24 05:23:03;;;;;;;5.70;2.10;;;7.20;39.80;;;;;;5055392;28;20220;-77
2022/04/24 05:25:29;;;;;;;5.33;2.97;;;7.50;4.10;;;;;;5037662;28;20284;-78
2022/04/24 05:27:54;;;;;;;4.20;2.27;;;7.90;1.00;;;;;;5055629;28;20424;-78
2022/04/24 05:30:20;;;;;;;7.17;3.30;;;8.30;1.00;;;;;;5055518;28;20248;-78
2022/04/24 05:32:47;;;;;;;4.17;1.30;;;8.60;1.00;;;;;;5055495;28;20178;-78
2022/04/24 05:35:12;;;;;;;4.63;2.20;;;8.60;99.90;;;;;;5055448;28;20201;-78
2022/04/24 05:37:38;;;;;;;4.37;2.40;;;8.70;99.90;;;;;;5055004;28;20418;-78
2022/04/24 05:40:05;;;;;;;6.17;2.20;;;8.90;99.90;;;;;;5055463;28;20171;-78
2022/04/24 05:42:30;;;;;;;5.80;1.83;;;9.10;1.00;;;;;;5055221;28;20203;-78
2022/04/24 05:45:00;;;;;;;6.70;1.97;;;9.00;99.90;;;;;;5055120;28;20483;-78
2022/04/24 05:47:26;;;;;;;4.00;1.13;;;9.20;99.90;;;;;;5055256;28;20640;-78
2022/04/24 05:49:51;;;;;;;6.53;1.80;;;9.50;1.00;;;;;;5037256;28;20424;-78
2022/04/24 05:52:17;;;;;;;5.67;1.10;;;9.60;99.90;;;;;;5054953;28;20198;-78
2022/04/24 05:54:42;;;;;;;7.93;1.77;;;10.10;1.00;;;;;;5054346;28;20204;-79
2022/04/24 05:57:08;;;;;;;4.00;1.50;;;10.60;1.00;;;;;;5054549;28;20314;-78
2022/04/24 05:59:33;;;;;;;4.20;1.87;;;11.00;1.00;;;;;;5037203;28;20174;-78
2022/04/24 06:01:59;;;;;;;4.10;1.37;;;11.70;99.90;;;;;;5054846;28;20170;-78
2022/04/24 06:04:24;;;;;;;4.43;1.90;;;11.90;99.90;;;;;;5055117;28;20195;-78
2022/04/24 06:06:50;;;;;;;3.73;1.90;;;12.00;99.90;;;;;;5055033;28;20198;-79
2022/04/24 06:09:18;;;;;;;4.40;1.80;;;12.70;99.90;;;;;;5054445;28;20171;-81
2022/04/24 06:11:44;;;;;;;4.13;1.77;;;13.00;99.90;;;;;;5054778;28;20301;-79
2022/04/24 06:14:09;;;;;;;2.87;1.43;;;13.80;99.90;;;;;;5054636;28;20449;-79
2022/04/24 06:16:36;;;;;;;4.00;2.17;;;14.20;99.20;;;;;;5036893;28;20241;-78
2022/04/24 06:19:02;;;;;;;4.00;1.53;;;14.30;92.50;;;;;;5054713;28;20172;-78
2022/04/24 06:21:27;;;;;;;4.73;2.43;;;15.50;51.00;;;;;;5054720;28;20502;-78
2022/04/24 06:23:53;;;;;;;3.40;1.40;;;15.30;19.70;;;;;;5046333;28;20513;-77
2022/04/24 06:26:18;;;;;;;4.10;1.50;;;15.60;17.00;;;;;;5043237;28;20257;-78
2022/04/24 06:28:44;;;;;;;2.50;1.07;;;15.70;5.00;;;;;;5034467;28;20175;-79
2022/04/24 06:31:09;;;;;;;5.90;1.60;;;15.30;5.30;;;;;;5017062;28;20171;-78
2022/04/24 06:33:35;;;;;;;4.43;1.80;;;15.40;5.30;;;;;;5034499;28;20543;-79
2022/04/24 06:36:02;;;;;;;3.30;1.70;;;15.20;2.90;;;;;;5040406;28;20174;-79
2022/04/24 06:38:28;;;;;;;3.20;1.23;;;15.10;9.70;;;;;;5053911;28;20218;-78
2022/04/24 06:40:53;;;;;;;3.83;1.10;;;15.00;6.00;;;;;;5054525;28;20440;-80
2022/04/24 06:43:19;;;;;;;5.07;1.80;;;15.90;6.20;;;;;;5054329;28;20469;-80
2022/04/24 06:45:45;;;;;;;3.67;1.23;;;15.60;4.80;;;;;;5054235;28;20175;-79
2022/04/24 06:48:13;;;;;;;3.37;1.37;;;16.30;1.90;;;;;;5054479;28;20279;-81
2022/04/24 06:50:40;;;;;;;3.27;1.70;;;16.90;1.00;;;;;;5054501;28;20170;-80
2022/04/24 06:53:08;;;;;;;2.90;1.80;;;16.90;1.00;;;;;;5053200;28;20431;-78
2022/04/24 06:55:35;;;;;;;4.87;2.00;;;17.20;1.00;;;;;;5054186;28;20534;-80
2022/04/24 06:58:02;;;;;;;3.40;1.63;;;17.00;1.00;;;;;;5054145;28;20778;-78
2022/04/24 07:00:29;;;;;;;2.73;1.77;;;17.00;1.00;;;;;;5053923;28;20428;-78
2022/04/24 07:02:55;;;;;;;5.20;1.73;;;18.50;1.00;;;;;;5055051;28;20508;-77
2022/04/24 07:05:22;;;;;;;4.87;2.47;;;18.30;1.00;;;;;;5064576;28;20472;-79
2022/04/24 07:07:48;;;;;;;4.80;1.90;;;18.30;1.00;;;;;;5062414;28;20168;-79
2022/04/24 07:10:14;;;;;;;6.10;2.10;;;17.50;1.00;;;;;;5058154;28;20434;-79
2022/04/24 07:12:50;;;;;;;4.13;1.90;;;17.80;1.00;;;;;;5053609;28;20458;-76
2022/04/24 07:15:17;;;;;;;3.00;1.83;;;17.70;1.00;;;;;;5053136;28;20415;-76
2022/04/24 07:17:44;;;;;;;2.70;1.73;;;18.80;1.00;;;;;;5053426;28;20512;-78
2022/04/24 07:20:11;;;;;;;3.77;2.80;;;18.50;1.00;;;;;;5056204;28;20429;-77
2022/04/24 07:22:47;;;;;;;4.93;2.43;;;17.70;1.00;;;;;;5052487;28;20496;-77
2022/04/24 07:25:21;;;;;;;4.47;2.30;;;18.80;1.00;;;;;;5058382;28;20988;-78
2022/04/24 07:27:47;;;;;;;4.10;1.60;;;18.80;1.00;;;;;;5052873;28;20467;-77
2022/04/24 07:30:14;;;;;;;2.93;1.53;;;18.00;1.00;;;;;;5052785;28;20423;-78
2022/04/24 07:32:42;;;;;;;3.97;1.93;;;17.90;1.00;;;;;;5052390;28;20413;-78
2022/04/24 07:35:12;;;;;;;3.10;1.47;;;18.90;1.00;;;;;;5053094;28;20431;-80
2022/04/24 07:37:38;;;;;;;3.50;1.43;;;19.00;1.00;;;;;;5052681;28;20422;-79
2022/04/24 07:40:06;;;;;;;6.07;2.07;;;18.50;1.00;;;;;;5053068;28;20420;-79
2022/04/24 07:42:32;;;;;;;4.03;2.00;;;18.10;1.00;;;;;;5052841;28;20206;-77
2022/04/24 07:44:57;;;;;;;4.20;2.00;;;18.20;1.00;;;;;;5052686;28;20421;-77
2022/04/24 07:47:23;;;;;;;3.13;1.80;;;18.50;1.00;;;;;;5052741;28;20410;-78
2022/04/24 07:49:48;;;;;;;3.10;1.40;;;18.00;1.00;;;;;;5052741;28;20536;-77
2022/04/24 07:52:14;;;;;;;3.50;2.30;;;19.60;1.00;;;;;;5055495;28;20168;-78
2022/04/24 07:54:39;;;;;;;3.17;1.87;;;19.00;1.00;;;;;;5052300;28;20174;-78
2022/04/24 07:57:08;;;;;;;2.80;1.47;;;18.20;1.00;;;;;;5054936;28;20191;-78
2022/04/24 07:59:34;;;;;;;3.10;1.27;;;19.50;1.00;;;;;;5052008;28;20177;-78
2022/04/24 08:02:00;;;;;;;2.03;1.60;;;20.30;1.00;;;;;;5051516;28;20528;-78
2022/04/24 08:04:25;;;;;;;3.00;1.23;;;21.00;1.00;;;;;;5051056;28;20517;-78
2022/04/24 08:06:51;;;;;;;2.47;1.17;;;18.80;1.00;;;;;;5052378;28;20197;-78
2022/04/24 08:09:16;;;;;;;3.30;1.70;;;19.00;1.00;;;;;;5033697;28;20587;-77
2022/04/24 08:11:42;;;;;;;2.63;1.40;;;18.90;1.00;;;;;;5048478;28;20181;-79
2022/04/24 08:14:07;;;;;;;6.40;1.80;;;20.60;1.00;;;;;;5056546;28;20190;-79
2022/04/24 08:16:35;;;;;;;2.50;1.20;;;20.60;1.00;;;;;;5052070;28;20172;-79
2022/04/24 08:19:01;;;;;;;2.73;1.70;;;20.10;1.00;;;;;;5050929;28;20177;-79
2022/04/24 08:21:26;;;;;;;2.80;1.37;;;19.20;1.00;;;;;;5052355;28;20418;-80
2022/04/24 08:23:55;;;;;;;4.07;1.80;;;18.70;1.00;;;;;;5051830;28;20278;-81
2022/04/24 08:26:20;;;;;;;2.30;1.70;;;19.40;1.00;;;;;;5052375;28;20169;-80
2022/04/24 08:28:46;;;;;;;5.80;2.10;;;19.10;1.00;;;;;;5052271;28;20415;-83
2022/04/24 08:31:12;;;;;;;4.73;2.00;;;20.00;1.00;;;;;;5052290;28;20180;-82
2022/04/24 08:33:37;;;;;;;5.77;2.17;;;20.30;1.00;;;;;;5052335;28;20166;-81
2022/04/24 08:36:05;;;;;;;4.97;1.63;;;21.50;1.00;;;;;;5052200;28;20360;-83
2022/04/24 08:38:31;;;;;;;3.77;1.73;;;21.00;1.00;;;;;;5052001;28;20201;-81
2022/04/24 08:41:00;;;;;;;3.43;2.20;;;19.60;1.00;;;;;;5052321;28;21005;-79
2022/04/24 08:43:25;;;;;;;3.40;1.70;;;20.20;1.00;;;;;;5052229;28;20672;-79
2022/04/24 08:45:53;;;;;;;3.63;1.90;;;19.60;1.00;;;;;;5052139;28;20444;-77
2022/04/24 08:48:19;;;;;;;2.50;1.90;;;18.70;1.00;;;;;;5051930;28;20177;-78
2022/04/24 08:50:46;;;;;;;4.03;1.53;;;20.90;1.00;;;;;;5052139;28;20751;-79
2022/04/24 08:53:13;;;;;;;2.93;1.30;;;19.70;1.00;;;;;;5069696;28;20911;-79
2022/04/24 08:55:39;;;;;;;3.33;1.80;;;21.50;1.00;;;;;;5063835;28;20891;-79
2022/04/24 08:58:08;;;;;;;5.20;2.03;;;21.30;1.00;;;;;;5071965;28;20756;-78
2022/04/24 09:00:34;;;;;;;2.43;1.73;;;20.80;1.00;;;;;;5071855;28;20403;-77
2022/04/24 09:03:00;;;;;;;3.70;2.20;;;20.10;1.00;;;;;;5071885;28;20474;-79
2022/04/24 09:05:26;;;;;;;3.97;2.23;;;21.10;1.00;;;;;;5071932;28;20169;-77
2022/04/24 09:07:53;;;;;;;2.73;2.17;;;20.70;1.00;;;;;;5070995;28;20514;-78
2022/04/24 09:10:19;;;;;;;4.47;2.50;;;21.20;1.00;;;;;;5071390;28;20945;-79
2022/04/24 09:12:54;;;;;;;3.33;1.80;;;21.70;1.00;;;;;;5053039;28;20682;-79
2022/04/24 09:15:19;;;;;;;2.63;2.00;;;21.80;1.00;;;;;;5071645;28;20551;-78
2022/04/24 09:17:45;;;;;;;2.90;2.10;;;21.60;1.00;;;;;;5065862;28;20427;-78
2022/04/24 09:20:19;;;;;;;4.57;2.07;;;21.70;1.00;;;;;;5057243;28;20192;-79
2022/04/24 09:22:45;;;;;;;2.53;1.40;;;20.90;1.00;;;;;;5051396;28;20304;-80
2022/04/24 09:25:12;;;;;;;4.17;2.20;;;21.40;1.00;;;;;;5050793;28;20471;-80
2022/04/24 09:27:38;;;;;;;2.80;1.73;;;22.80;1.00;;;;;;5051452;28;20413;-79
2022/04/24 09:30:14;;;;;;;4.00;3.60;;;23.80;1.00;;;;;;5051079;28;20436;-78
2022/04/24 09:32:54;;;;;;;4.10;1.40;;;22.50;1.00;;;;;;5054917;28;20416;-79
2022/04/24 09:35:28;;;;;;;3.10;2.13;;;22.20;1.00;;;;;;5065271;28;20411;-79
2022/04/24 09:38:09;;;;;;;3.00;2.10;;;23.30;1.00;;;;;;5074380;28;20498;-79
2022/04/24 09:40:48;;;;;;;5.23;1.90;;;23.00;1.00;;;;;;5074877;28;20411;-80
2022/04/24 09:43:19;;;;;;;2.50;1.70;;;22.90;1.00;;;;;;5056759;28;20812;-80
2022/04/24 09:45:50;;;;;;;3.30;1.90;;;21.30;1.00;;;;;;5074680;28;20476;-79
2022/04/24 09:48:18;;;;;;;2.80;2.20;;;19.70;1.00;;;;;;5074497;28;20761;-79
2022/04/24 09:50:47;;;;;;;3.33;1.90;;;20.20;1.00;;;;;;5074573;28;20913;-78
2022/04/24 09:53:14;;;;;;;4.63;2.00;;;19.70;1.00;;;;;;5074092;28;20763;-79
2022/04/24 09:55:43;;;;;;;3.73;1.80;;;19.60;1.00;;;;;;5074428;28;20415;-79
2022/04/24 09:58:09;;;;;;;5.73;1.93;;;19.90;1.00;;;;;;5074603;28;20415;-78
2022/04/24 10:00:35;;;;;;;3.13;1.73;;;19.20;1.00;;;;;;5073656;28;20480;-78
2022/04/24 10:03:04;;;;;;;2.53;1.73;;;19.10;1.00;;;;;;5073296;28;20463;-79
2022/04/24 10:05:30;;;;;;;3.00;2.27;;;18.60;1.00;;;;;;5056229;28;20426;-79
2022/04/24 10:07:56;;;;;;;3.20;2.10;;;18.10;1.00;;;;;;5055802;28;20981;-79
2022/04/24 10:10:22;;;;;;;3.80;2.00;;;19.70;1.00;;;;;;5074360;28;20446;-79
2022/04/24 10:12:50;;;;;;;3.80;1.70;;;19.10;1.00;;;;;;5074235;28;20774;-79
2022/04/24 10:15:18;;;;;;;4.20;1.90;;;21.20;1.00;;;;;;5074017;28;20203;-79
2022/04/24 10:18:02;;;;;;;3.80;1.87;;;21.60;1.00;;;;;;5056407;28;20806;-79
2022/04/24 10:21:03;;;;;;;5.87;2.60;;;20.10;1.00;;;;;;5054086;28;20469;-79
2022/04/24 10:23:33;;;;;;;3.40;2.70;;;20.20;1.00;;;;;;5053463;28;20561;-80
2022/04/24 10:25:59;;;;;;;4.17;3.00;;;21.80;1.00;;;;;;5053365;28;20405;-79
2022/04/24 10:28:38;;;;;;;3.87;2.87;;;21.40;1.00;;;;;;5053982;28;20879;-79
2022/04/24 10:31:04;;;;;;;6.40;3.20;;;21.30;1.00;;;;;;5054224;28;20416;-79
2022/04/24 10:33:32;;;;;;;8.67;6.13;;;21.00;1.00;;;;;;5053956;28;20416;-80
2022/04/24 10:36:13;;;;;;;8.30;2.70;;;21.60;1.00;;;;;;5054073;28;20439;-80
2022/04/24 10:38:46;;;;;;;11.23;4.37;;;18.70;1.00;;;;;;5035662;28;20752;-79
2022/04/24 10:41:23;;;;;;;8.93;5.20;;;20.00;1.00;;;;;;5053496;28;20408;-79
2022/04/24 10:43:53;;;;;;;2.83;1.93;;;20.20;1.00;;;;;;5053748;28;20534;-79
2022/04/24 10:46:19;;;;;;;1.90;1.50;;;20.30;1.00;;;;;;5053790;28;20814;-79
2022/04/24 10:48:46;;;;;;;5.83;3.20;;;19.40;1.00;;;;;;5053774;28;20416;-79
2022/04/24 10:51:13;;;;;;;9.23;5.07;;;19.70;1.00;;;;;;5035799;28;20604;-79
2022/04/24 10:53:55;;;;;;;5.67;2.03;;;19.70;1.00;;;;;;5052836;28;20950;-79
2022/04/24 10:56:20;;;;;;;4.57;2.30;;;20.10;1.00;;;;;;5035784;28;20419;-79
2022/04/24 10:58:46;;;;;;;3.70;1.70;;;22.10;1.00;;;;;;5053428;28;20404;-79
2022/04/24 11:01:15;;;;;;;5.30;3.63;;;22.10;1.00;;;;;;5053308;28;20662;-79
2022/04/24 11:03:42;;;;;;;6.47;4.33;;;22.70;1.00;;;;;;5053351;28;20249;-79
2022/04/24 11:06:18;;;;;;;12.23;6.73;;;22.00;1.00;;;;;;5053462;28;20507;-79
2022/04/24 11:08:43;;;;;;;4.23;3.23;;;22.60;1.00;;;;;;5052993;28;20494;-79
2022/04/24 11:11:13;;;;;;;5.40;2.70;;;21.60;1.00;;;;;;5053309;28;20496;-80
2022/04/24 11:13:39;;;;;;;4.60;2.33;;;20.90;1.00;;;;;;5053111;28;20173;-79
2022/04/24 11:16:08;;;;;;;7.80;3.27;;;20.50;1.00;;;;;;5053324;28;20412;-79
2022/04/24 11:18:36;;;;;;;8.60;4.27;;;19.50;1.00;;;;;;5053045;28;20161;-79
2022/04/24 11:21:06;;;;;;;8.00;5.30;;;19.40;1.00;;;;;;5052940;28;20420;-78
2022/04/24 11:23:39;;;;;;;8.90;6.43;;;19.50;1.00;;;;;;5052547;28;20479;-78
2022/04/24 11:26:09;;;;;;;4.70;3.30;;;20.10;1.00;;;;;;5052939;28;20440;-79
2022/04/24 11:28:39;;;;;;;4.93;3.37;;;19.90;1.00;;;;;;5052976;28;20508;-78
2022/04/24 11:31:13;;;;;;;6.90;3.33;;;19.30;1.00;;;;;;5053046;28;20496;-78
2022/04/24 11:33:51;;;;;;;5.77;3.60;;;19.00;1.00;;;;;;5053132;28;20768;-79
2022/04/24 11:36:17;;;;;;;13.93;9.43;;;17.70;1.00;;;;;;5052807;28;20411;-77
2022/04/24 11:38:46;;;;;;;7.23;5.07;;;16.90;1.00;;;;;;5052553;28;20415;-77
2022/04/24 11:41:15;;;;;;;5.07;4.40;;;16.60;1.00;;;;;;5052742;28;20167;-78
2022/04/24 11:43:41;;;;;;;4.30;3.60;;;17.50;1.00;;;;;;5052701;28;20475;-78
2022/04/24 11:51:35;;;;;;;9.30;4.63;;;16.40;1.00;;;;;;5051966;28;20768;-77
2022/04/24 11:54:01;;;;;;;5.23;3.23;;;15.90;1.00;;;;;;5051423;28;20420;-77
2022/04/24 11:56:27;;;;;;;7.47;4.67;;;15.80;1.00;;;;;;5052117;28;20663;-77
2022/04/24 11:59:14;;;;;;;3.47;1.77;;;16.00;1.00;;;;;;5052321;28;20449;-77
2022/04/24 12:01:40;;;;;;;10.77;4.13;;;16.30;1.00;;;;;;5052110;28;20411;-78
2022/04/24 12:04:06;;;;;;;10.00;5.60;;;18.10;1.00;;;;;;5052025;28;20558;-78
2022/04/24 12:06:34;;;;;;;8.37;4.70;;;18.50;1.00;;;;;;5051888;28;20971;-77
2022/04/24 12:09:08;;;;;;;6.17;4.00;;;18.20;1.00;;;;;;5052642;28;20209;-78
2022/04/24 12:11:35;;;;;;;11.17;3.90;;;17.10;1.00;;;;;;5052159;28;20927;-79
2022/04/24 12:14:10;;;;;;;8.90;5.77;;;17.30;1.00;;;;;;5034537;28;20495;-78
2022/04/24 12:16:39;;;;;;;3.00;2.00;;;17.00;1.00;;;;;;5052530;28;20419;-78
2022/04/24 12:19:05;;;;;;;8.90;2.37;;;16.70;1.00;;;;;;5052425;28;20417;-79
2022/04/24 12:21:33;;;;;;;15.30;8.40;;;16.90;1.00;;;;;;5052096;28;20516;-78
2022/04/24 12:23:59;;;;;;;5.13;2.90;;;18.20;1.00;;;;;;5052131;28;20528;-77
2022/04/24 12:26:25;;;;;;;4.80;3.70;;;18.00;1.00;;;;;;5052240;28;20458;-77
2022/04/24 12:28:51;;;;;;;4.90;4.20;;;18.10;1.00;;;;;;5052314;28;20521;-77
2022/04/24 12:31:23;;;;;;;9.03;4.90;;;17.30;1.00;;;;;;5052206;28;20418;-76
2022/04/24 12:33:55;;;;;;;3.30;2.83;;;18.20;1.00;;;;;;5052286;28;20410;-76
2022/04/24 12:36:22;;;;;;;5.07;2.73;;;17.50;1.00;;;;;;5052246;28;20476;-76
2022/04/24 12:39:06;;;;;;;5.47;2.67;;;18.10;1.00;;;;;;5052820;28;20945;-78
2022/04/24 12:41:36;;;;;;;6.17;3.30;;;19.10;1.00;;;;;;5052469;28;20515;-77
2022/04/24 12:44:06;;;;;;;3.30;2.60;;;19.50;1.00;;;;;;5052401;28;20479;-77
2022/04/24 12:46:33;;;;;;;4.37;2.23;;;19.40;1.00;;;;;;5034421;28;20434;-78
2022/04/24 12:49:00;;;;;;;4.37;2.63;;;18.30;1.00;;;;;;5052471;28;20423;-78
2022/04/24 12:51:29;;;;;;;6.20;3.43;;;17.20;1.00;;;;;;5034060;28;20447;-77
2022/04/24 12:53:56;;;;;;;9.60;6.60;;;17.30;1.00;;;;;;5052318;28;21045;-76
2022/04/24 12:56:26;;;;;;;11.97;8.53;;;17.50;1.00;;;;;;5052241;28;20500;-78
2022/04/24 12:58:52;;;;;;;35.67;25.77;;;17.00;1.00;;;;;;5051655;28;20424;-76
2022/04/24 13:01:18;;;;;;;12.27;6.40;;;18.20;1.00;;;;;;5033801;28;20420;-77
2022/04/24 13:03:47;;;;;;;7.20;5.27;;;17.00;1.00;;;;;;5051638;28;20589;-76
2022/04/24 13:06:15;;;;;;;8.73;5.40;;;16.40;1.00;;;;;;5055100;28;20722;-76